createdAt,value
2023-02-27T00:02:03.739Z,-6.04
2023-02-27T00:04:30.446Z,-6.06
2023-02-27T00:06:57.054Z,-6.05
2023-02-27T00:09:23.928Z,-6.09
2023-02-27T00:11:50.501Z,-6.15
2023-02-27T00:14:17.024Z,-6.23
2023-02-27T00:16:44.925Z,-6.27
2023-02-27T00:19:11.481Z,-6.35
2023-02-27T00:21:38.184Z,-6.41
2023-02-27T00:24:05.922Z,-6.42
2023-02-27T00:26:32.548Z,-6.44
2023-02-27T00:28:59.089Z,-6.45
2023-02-27T00:31:25.949Z,-6.47
2023-02-27T00:33:54.065Z,-6.51
2023-02-27T00:36:20.741Z,-6.49
2023-02-27T00:38:47.394Z,-6.52
2023-02-27T00:41:14.472Z,-6.56
2023-02-27T00:43:40.985Z,-6.61
2023-02-27T00:46:07.723Z,-6.64
2023-02-27T00:48:34.266Z,-6.71
2023-02-27T00:51:02.655Z,-6.74
2023-02-27T00:53:29.220Z,-6.78
2023-02-27T00:55:55.854Z,-6.82
2023-02-27T00:58:22.429Z,-6.84
2023-02-27T01:00:49.136Z,-6.83
2023-02-27T01:03:15.736Z,-6.88
2023-02-27T01:05:42.277Z,-6.95
2023-02-27T01:08:10.254Z,-6.96
2023-02-27T01:10:37.068Z,-6.86
2023-02-27T01:13:03.664Z,-6.87
2023-02-27T01:15:30.220Z,-6.90
2023-02-27T01:17:56.831Z,-6.91
2023-02-27T01:20:23.420Z,-6.98
2023-02-27T01:22:49.953Z,-7.02
2023-02-27T01:25:18.157Z,-7.04
2023-02-27T01:27:44.868Z,-7.05
2023-02-27T01:30:12.026Z,-7.07
2023-02-27T01:32:38.810Z,-7.11
2023-02-27T01:35:06.389Z,-7.14
2023-02-27T01:37:32.923Z,-7.16
2023-02-27T01:39:59.473Z,-7.21
2023-02-27T01:42:28.837Z,-7.24
2023-02-27T01:45:18.659Z,-7.27
2023-02-27T01:47:48.373Z,-7.32
2023-02-27T01:50:17.690Z,-7.32
2023-02-27T01:52:45.872Z,-7.35
2023-02-27T01:55:14.743Z,-7.36
2023-02-27T01:57:45.989Z,-7.40
2023-02-27T02:00:14.034Z,-7.43
2023-02-27T02:02:44.281Z,-7.44
2023-02-27T02:05:10.953Z,-7.42
2023-02-27T02:07:39.608Z,-7.40
2023-02-27T02:10:07.101Z,-7.30
2023-02-27T02:12:35.643Z,-7.28
2023-02-27T02:15:04.401Z,-7.29
2023-02-27T02:17:36.958Z,-7.31
2023-02-27T02:20:38.748Z,-7.32
2023-02-27T02:23:29.621Z,-7.35
2023-02-27T02:26:33.589Z,-7.41
2023-02-27T02:29:43.606Z,-7.46
2023-02-27T02:32:41.716Z,-7.51
2023-02-27T02:35:38.927Z,-7.55
2023-02-27T02:38:43.501Z,-7.56
2023-02-27T02:41:18.682Z,-7.61
2023-02-27T02:43:54.582Z,-7.65
2023-02-27T02:46:30.734Z,-7.65
2023-02-27T02:49:03.040Z,-7.68
2023-02-27T02:51:35.434Z,-7.70
2023-02-27T02:54:09.522Z,-7.72
2023-02-27T02:56:38.969Z,-7.67
2023-02-27T02:59:12.929Z,-7.72
2023-02-27T03:01:44.019Z,-7.78
2023-02-27T03:04:14.380Z,-7.80
2023-02-27T03:06:45.993Z,-7.81
2023-02-27T03:09:18.820Z,-7.82
2023-02-27T03:11:49.056Z,-7.83
2023-02-27T03:14:24.598Z,-7.87
2023-02-27T03:16:54.372Z,-7.88
2023-02-27T03:19:24.935Z,-7.90
2023-02-27T03:21:56.255Z,-7.92
2023-02-27T03:24:28.298Z,-7.96
2023-02-27T03:26:58.347Z,-7.98
2023-02-27T03:29:35.927Z,-8.01
2023-02-27T03:32:08.294Z,-8.00
2023-02-27T03:34:39.469Z,-8.02
2023-02-27T03:37:20.168Z,-8.01
2023-02-27T03:39:50.496Z,-8.00
2023-02-27T03:42:26.340Z,-8.02
2023-02-27T03:44:59.141Z,-8.05
2023-02-27T03:47:25.959Z,-8.06
2023-02-27T03:49:52.815Z,-8.09
2023-02-27T03:52:20.437Z,-8.11
2023-02-27T03:54:53.898Z,-8.12
2023-02-27T03:57:20.563Z,-8.14
2023-02-27T03:59:47.341Z,-8.17
2023-02-27T04:02:14.081Z,-8.20
2023-02-27T04:04:40.682Z,-8.23
2023-02-27T04:07:15.111Z,-8.27
2023-02-27T04:10:00.666Z,-8.30
2023-02-27T04:12:45.522Z,-8.31
2023-02-27T04:15:22.448Z,-8.35
2023-02-27T04:17:56.140Z,-8.34
2023-02-27T04:20:43.845Z,-8.33
2023-02-27T04:23:15.994Z,-8.38
2023-02-27T04:25:54.972Z,-8.40
2023-02-27T04:28:27.301Z,-8.41
2023-02-27T04:31:05.484Z,-8.42
2023-02-27T04:33:42.983Z,-8.44
2023-02-27T04:36:14.177Z,-8.46
2023-02-27T04:38:47.460Z,-8.47
2023-02-27T04:41:21.661Z,-8.45
2023-02-27T04:43:50.026Z,-8.43
2023-02-27T04:46:20.897Z,-8.45
2023-02-27T04:48:54.044Z,-8.47
2023-02-27T04:51:25.747Z,-8.49
2023-02-27T04:53:56.346Z,-8.49
2023-02-27T04:56:29.345Z,-8.49
2023-02-27T04:59:00.262Z,-8.48
2023-02-27T05:01:34.564Z,-8.49
2023-02-27T05:04:03.045Z,-8.49
2023-02-27T05:06:34.561Z,-8.49
2023-02-27T05:09:10.295Z,-8.49
2023-02-27T05:11:44.255Z,-8.47
2023-02-27T05:14:16.325Z,-8.47
2023-02-27T05:16:47.810Z,-8.48
2023-02-27T05:19:14.586Z,-8.46
2023-02-27T05:21:49.117Z,-8.48
2023-02-27T05:24:28.835Z,-8.48
2023-02-27T05:27:12.264Z,-8.45
2023-02-27T05:29:45.033Z,-8.40
2023-02-27T05:32:20.865Z,-8.37
2023-02-27T05:34:52.662Z,-8.39
2023-02-27T05:37:24.931Z,-8.42
2023-02-27T05:39:52.846Z,-8.45
2023-02-27T05:42:26.880Z,-8.49
2023-02-27T05:44:59.255Z,-8.52
2023-02-27T05:47:31.041Z,-8.52
2023-02-27T05:50:02.823Z,-8.56
2023-02-27T05:52:31.829Z,-8.58
2023-02-27T05:55:03.403Z,-8.59
2023-02-27T05:57:38.917Z,-8.63
2023-02-27T06:00:10.398Z,-8.62
2023-02-27T06:02:37.004Z,-8.61
2023-02-27T06:05:04.388Z,-8.59
2023-02-27T06:07:31.901Z,-8.57
2023-02-27T06:09:58.655Z,-8.59
2023-02-27T06:12:25.422Z,-8.60
2023-02-27T06:14:53.402Z,-8.61
2023-02-27T06:17:20.007Z,-8.60
2023-02-27T06:19:46.684Z,-8.57
2023-02-27T06:22:13.198Z,-8.57
2023-02-27T06:24:39.756Z,-8.56
2023-02-27T06:27:06.326Z,-8.58
2023-02-27T06:29:32.886Z,-8.60
2023-02-27T06:32:00.836Z,-8.61
2023-02-27T06:34:27.617Z,-8.60
2023-02-27T06:36:54.228Z,-8.57
2023-02-27T06:39:21.013Z,-8.55
2023-02-27T06:41:47.608Z,-8.49
2023-02-27T06:44:14.147Z,-8.44
2023-02-27T06:46:40.724Z,-8.39
2023-02-27T06:49:08.673Z,-8.35
2023-02-27T06:51:35.236Z,-8.36
2023-02-27T06:54:01.802Z,-8.32
2023-02-27T06:56:28.618Z,-8.28
2023-02-27T06:58:55.361Z,-8.21
2023-02-27T07:01:21.996Z,-8.08
2023-02-27T07:03:48.587Z,-8.08
2023-02-27T07:06:16.580Z,-8.03
2023-02-27T07:09:02.158Z,-7.99
2023-02-27T07:11:29.634Z,-7.94
2023-02-27T07:13:56.619Z,-7.93
2023-02-27T07:16:23.320Z,-7.92
2023-02-27T07:18:49.849Z,-7.90
2023-02-27T07:21:17.782Z,-7.88
2023-02-27T07:23:44.546Z,-7.81
2023-02-27T07:26:11.135Z,-7.76
2023-02-27T07:28:37.840Z,-7.73
2023-02-27T07:31:04.850Z,-7.68
2023-02-27T07:33:31.648Z,-7.62
2023-02-27T07:35:58.220Z,-7.55
2023-02-27T07:38:26.190Z,-7.49
2023-02-27T07:40:52.946Z,-7.41
2023-02-27T07:43:19.490Z,-7.28
2023-02-27T07:45:46.120Z,-7.14
2023-02-27T07:48:12.772Z,-6.99
2023-02-27T07:50:39.289Z,-6.85
2023-02-27T07:53:05.888Z,-6.69
2023-02-27T07:55:33.819Z,-6.55
2023-02-27T07:58:00.362Z,-6.41
2023-02-27T08:00:26.972Z,-6.25
2023-02-27T08:02:53.636Z,-6.09
2023-02-27T08:05:20.232Z,-5.93
2023-02-27T08:07:46.913Z,-5.78
2023-02-27T08:10:13.625Z,-5.61
2023-02-27T08:12:41.641Z,-5.46
2023-02-27T08:15:09.591Z,-5.35
2023-02-27T08:17:36.144Z,-5.16
2023-02-27T08:20:02.842Z,-5.00
2023-02-27T08:22:29.672Z,-4.84
2023-02-27T08:24:56.261Z,-4.63
2023-02-27T08:27:22.804Z,-4.46
2023-02-27T08:29:50.687Z,-4.30
2023-02-27T08:32:17.383Z,-4.20
2023-02-27T08:34:44.048Z,-4.00
2023-02-27T08:37:10.781Z,-3.91
2023-02-27T08:39:37.296Z,-3.72
2023-02-27T08:42:04.017Z,-3.56
2023-02-27T08:44:30.835Z,-3.39
2023-02-27T08:46:58.781Z,-3.21
2023-02-27T08:49:25.415Z,-3.08
2023-02-27T08:51:52.439Z,-2.95
2023-02-27T08:54:20.047Z,-2.73
2023-02-27T08:56:47.990Z,-2.49
2023-02-27T08:59:14.890Z,-2.25
2023-02-27T09:01:41.931Z,-2.01
2023-02-27T09:04:10.283Z,-1.83
2023-02-27T09:06:37.370Z,-1.70
2023-02-27T09:09:04.880Z,-1.48
2023-02-27T09:11:34.425Z,-1.34
2023-02-27T09:14:01.225Z,-1.17
2023-02-27T09:16:28.335Z,-1.05
2023-02-27T09:18:55.409Z,-0.89
2023-02-27T09:21:23.550Z,-0.69
2023-02-27T09:23:50.227Z,-0.67
2023-02-27T09:26:16.865Z,-0.77
2023-02-27T09:28:43.756Z,-0.73
2023-02-27T09:31:10.476Z,-0.45
2023-02-27T09:33:38.143Z,-0.31
2023-02-27T09:36:05.299Z,-0.03
2023-02-27T09:38:34.119Z,0.00
2023-02-27T09:41:00.863Z,0.06
2023-02-27T09:43:32.689Z,-0.00
2023-02-27T09:46:01.145Z,0.02
2023-02-27T09:48:30.594Z,0.24
2023-02-27T09:50:57.932Z,0.54
2023-02-27T09:53:27.704Z,0.74
2023-02-27T09:55:59.790Z,0.73
2023-02-27T09:58:37.939Z,0.66
2023-02-27T10:01:09.944Z,0.65
2023-02-27T10:04:13.294Z,0.84
2023-02-27T10:06:44.193Z,0.82
2023-02-27T10:09:28.891Z,0.56
2023-02-27T10:12:09.777Z,1.05
2023-02-27T10:14:42.291Z,1.12
2023-02-27T10:17:15.543Z,1.38
2023-02-27T10:19:45.912Z,1.69
2023-02-27T10:22:17.075Z,1.57
2023-02-27T10:24:50.251Z,1.28
2023-02-27T10:27:20.797Z,1.15
2023-02-27T10:29:47.519Z,0.98
2023-02-27T10:32:19.219Z,0.87
2023-02-27T10:34:50.294Z,0.77
2023-02-27T10:37:20.771Z,0.98
2023-02-27T10:39:50.314Z,0.97
2023-02-27T10:42:18.520Z,0.90
2023-02-27T10:44:45.058Z,1.36
2023-02-27T10:47:15.209Z,1.68
2023-02-27T10:49:43.682Z,1.54
2023-02-27T10:52:12.585Z,1.46
2023-02-27T10:54:40.743Z,1.26
2023-02-27T10:57:21.646Z,1.19
2023-02-27T10:59:53.542Z,1.38
2023-02-27T11:02:22.832Z,1.45
2023-02-27T11:04:52.575Z,1.35
2023-02-27T11:07:28.853Z,1.34
2023-02-27T11:10:01.291Z,1.23
2023-02-27T11:12:31.433Z,1.69
2023-02-27T11:14:59.742Z,2.82
2023-02-27T11:17:29.241Z,4.11
2023-02-27T11:19:56.299Z,5.08
2023-02-27T11:22:25.098Z,5.39
2023-02-27T11:25:09.343Z,5.99
2023-02-27T11:27:37.431Z,5.90
2023-02-27T11:30:06.287Z,6.20
2023-02-27T11:32:41.460Z,6.47
2023-02-27T11:35:22.933Z,6.43
2023-02-27T11:37:51.319Z,6.53
2023-02-27T11:40:20.014Z,6.62
2023-02-27T11:42:50.698Z,6.99
2023-02-27T11:46:19.452Z,6.78
2023-02-27T11:48:20.828Z,7.33
2023-02-27T11:51:16.101Z,7.71
2023-02-27T11:54:15.080Z,7.99
2023-02-27T11:56:45.029Z,8.46
2023-02-27T11:59:27.718Z,8.43
2023-02-27T12:02:01.537Z,8.49
2023-02-27T12:04:35.258Z,8.46
2023-02-27T12:07:09.811Z,7.90
2023-02-27T12:09:42.606Z,7.74
2023-02-27T12:12:17.419Z,8.37
2023-02-27T12:14:55.123Z,8.69
2023-02-27T12:17:26.268Z,8.98
2023-02-27T12:20:06.488Z,8.75
2023-02-27T12:22:37.441Z,8.35
2023-02-27T12:25:07.405Z,8.11
2023-02-27T12:27:43.856Z,8.30
2023-02-27T12:30:19.289Z,6.84
2023-02-27T12:32:53.898Z,5.97
2023-02-27T12:35:24.308Z,5.12
2023-02-27T12:37:51.841Z,4.82
2023-02-27T12:40:20.499Z,4.52
2023-02-27T12:43:03.824Z,4.80
2023-02-27T12:46:07.528Z,5.82
2023-02-27T12:48:47.010Z,6.90
2023-02-27T12:51:29.824Z,7.07
2023-02-27T12:54:08.593Z,6.04
2023-02-27T12:56:47.021Z,5.45
2023-02-27T12:59:28.808Z,4.69
2023-02-27T13:02:05.240Z,4.36
2023-02-27T13:04:44.073Z,3.98
2023-02-27T13:07:21.437Z,4.91
2023-02-27T13:09:51.064Z,5.80
2023-02-27T13:12:26.170Z,6.67
2023-02-27T13:14:59.105Z,7.55
2023-02-27T13:17:34.190Z,8.01
2023-02-27T13:20:07.491Z,8.43
2023-02-27T13:22:41.115Z,8.70
2023-02-27T13:25:12.955Z,7.46
2023-02-27T13:27:43.839Z,6.61
2023-02-27T13:30:15.576Z,6.14
2023-02-27T13:32:49.677Z,5.33
2023-02-27T13:35:29.162Z,5.00
2023-02-27T13:37:57.710Z,4.62
2023-02-27T13:40:34.576Z,4.24
2023-02-27T13:43:04.588Z,4.21
2023-02-27T13:45:52.763Z,4.32
2023-02-27T13:48:43.387Z,5.63
2023-02-27T13:51:26.696Z,6.92
2023-02-27T13:54:08.346Z,7.65
2023-02-27T13:56:35.644Z,7.39
2023-02-27T13:59:12.055Z,7.00
2023-02-27T14:01:39.210Z,6.26
2023-02-27T14:04:08.045Z,5.64
2023-02-27T14:06:43.950Z,5.23
2023-02-27T14:09:15.251Z,5.08
2023-02-27T14:11:53.874Z,5.97
2023-02-27T14:14:50.621Z,5.74
2023-02-27T14:17:40.509Z,5.38
2023-02-27T14:20:14.110Z,4.98
2023-02-27T14:22:57.723Z,4.74
2023-02-27T14:25:30.320Z,4.60
2023-02-27T14:27:58.587Z,4.28
2023-02-27T14:30:31.988Z,4.10
2023-02-27T14:33:03.057Z,4.05
2023-02-27T14:35:32.492Z,4.17
2023-02-27T14:38:08.017Z,4.37
2023-02-27T14:40:40.081Z,4.24
2023-02-27T14:43:17.010Z,4.19
2023-02-27T14:45:43.655Z,4.12
2023-02-27T14:48:10.927Z,3.99
2023-02-27T14:50:40.502Z,3.71
2023-02-27T14:53:21.461Z,3.63
2023-02-27T14:55:53.704Z,3.55
2023-02-27T14:58:22.176Z,3.52
2023-02-27T15:00:56.805Z,3.38
2023-02-27T15:03:26.113Z,3.30
2023-02-27T15:05:59.040Z,3.12
2023-02-27T15:08:29.004Z,3.20
2023-02-27T15:10:57.478Z,3.11
2023-02-27T15:13:28.359Z,3.00
2023-02-27T15:16:34.447Z,2.93
2023-02-27T15:19:13.333Z,2.84
2023-02-27T15:21:44.812Z,2.83
2023-02-27T15:24:22.470Z,2.79
2023-02-27T15:26:53.115Z,2.72
2023-02-27T15:29:23.493Z,2.60
2023-02-27T15:31:51.541Z,2.50
2023-02-27T15:34:18.789Z,2.47
2023-02-27T15:36:51.117Z,2.35
2023-02-27T15:39:20.212Z,2.25
2023-02-27T15:41:49.229Z,2.20
2023-02-27T15:44:17.391Z,2.13
2023-02-27T15:46:45.799Z,2.10
2023-02-27T15:49:17.683Z,2.10
2023-02-27T15:51:48.821Z,2.13
2023-02-27T15:54:15.553Z,2.18
2023-02-27T15:56:42.763Z,2.11
2023-02-27T15:59:15.880Z,2.02
2023-02-27T16:01:42.769Z,1.91
2023-02-27T16:04:20.491Z,1.89
2023-02-27T16:06:53.182Z,1.84
2023-02-27T16:09:23.183Z,1.81
2023-02-27T16:11:50.034Z,1.77
2023-02-27T16:14:36.826Z,1.71
2023-02-27T16:17:03.649Z,1.71
2023-02-27T16:19:31.801Z,1.67
2023-02-27T16:22:13.784Z,1.63
2023-02-27T16:24:40.900Z,1.48
2023-02-27T16:27:16.487Z,1.45
2023-02-27T16:29:45.129Z,1.39
2023-02-27T16:32:22.718Z,1.26
2023-02-27T16:34:50.042Z,1.19
2023-02-27T16:37:21.149Z,1.10
2023-02-27T16:39:49.594Z,1.04
2023-02-27T16:42:16.174Z,1.01
2023-02-27T16:44:43.122Z,1.00
2023-02-27T16:47:09.844Z,0.96
2023-02-27T16:49:36.440Z,0.96
2023-02-27T16:52:03.006Z,0.87
2023-02-27T16:54:30.855Z,0.75
2023-02-27T16:56:57.486Z,0.74
2023-02-27T16:59:29.671Z,0.65
2023-02-27T17:01:57.474Z,0.57
2023-02-27T17:04:26.176Z,0.53
2023-02-27T17:06:53.800Z,0.46
2023-02-27T17:09:20.478Z,0.42
2023-02-27T17:11:48.658Z,0.34
2023-02-27T17:14:15.527Z,0.30
2023-02-27T17:16:42.185Z,0.21
2023-02-27T17:19:08.773Z,0.05
2023-02-27T17:21:35.303Z,-0.00
2023-02-27T17:24:02.585Z,-0.10
2023-02-27T17:26:29.508Z,-0.17
2023-02-27T17:28:58.028Z,-0.26
2023-02-27T17:31:24.951Z,-0.30
2023-02-27T17:33:52.297Z,-0.39
2023-02-27T17:36:19.513Z,-0.38
2023-02-27T17:38:46.128Z,-0.46
2023-02-27T17:41:14.061Z,-0.50
2023-02-27T17:43:40.939Z,-0.60
2023-02-27T17:46:09.875Z,-0.65
2023-02-27T17:48:37.071Z,-0.60
2023-02-27T17:51:04.731Z,-0.67
2023-02-27T17:53:32.657Z,-0.65
2023-02-27T17:55:59.252Z,-0.66
2023-02-27T17:58:25.803Z,-0.70
2023-02-27T18:00:52.348Z,-0.75
2023-02-27T18:03:20.328Z,-0.82
2023-02-27T18:05:51.037Z,-0.82
2023-02-27T18:08:18.025Z,-0.86
2023-02-27T18:10:46.910Z,-0.86
2023-02-27T18:13:13.717Z,-0.87
2023-02-27T18:15:40.300Z,-0.91
2023-02-27T18:18:06.898Z,-0.87
2023-02-27T18:20:34.978Z,-0.91
2023-02-27T18:23:01.623Z,-0.95
2023-02-27T18:25:28.212Z,-0.95
2023-02-27T18:27:55.244Z,-1.03
2023-02-27T18:30:21.834Z,-1.08
2023-02-27T18:32:48.435Z,-1.13
2023-02-27T18:35:15.384Z,-1.22
2023-02-27T18:37:43.313Z,-1.29
2023-02-27T18:40:11.282Z,-1.40
2023-02-27T18:42:37.952Z,-1.47
2023-02-27T18:45:05.511Z,-1.53
2023-02-27T18:47:32.323Z,-1.58
2023-02-27T18:49:59.395Z,-1.58
2023-02-27T18:52:26.254Z,-1.58
2023-02-27T18:54:54.208Z,-1.61
2023-02-27T18:57:20.915Z,-1.62
2023-02-27T18:59:47.616Z,-1.65
2023-02-27T19:02:15.688Z,-1.68
2023-02-27T19:04:42.262Z,-1.62
2023-02-27T19:07:08.849Z,-1.66
2023-02-27T19:09:35.436Z,-1.69
2023-02-27T19:12:03.845Z,-1.63
2023-02-27T19:14:30.573Z,-1.65
2023-02-27T19:16:57.467Z,-1.62
2023-02-27T19:19:24.066Z,-1.69
2023-02-27T19:21:50.857Z,-1.67
2023-02-27T19:24:17.442Z,-1.67
2023-02-27T19:26:44.014Z,-1.67
2023-02-27T19:29:11.917Z,-1.71
2023-02-27T19:31:38.761Z,-1.71
2023-02-27T19:34:05.687Z,-1.71
2023-02-27T19:36:32.373Z,-1.74
2023-02-27T19:38:59.230Z,-1.76
2023-02-27T19:41:25.854Z,-1.79
2023-02-27T19:43:52.950Z,-1.85
2023-02-27T19:46:23.529Z,-1.89
2023-02-27T19:48:50.398Z,-1.96
2023-02-27T19:51:17.310Z,-1.96
2023-02-27T19:53:45.898Z,-1.97
2023-02-27T19:56:15.482Z,-1.95
2023-02-27T19:58:42.105Z,-1.97
2023-02-27T20:01:08.846Z,-1.99
2023-02-27T20:03:37.191Z,-2.03
2023-02-27T20:06:04.222Z,-2.07
2023-02-27T20:08:30.727Z,-2.07
2023-02-27T20:10:58.598Z,-2.13
2023-02-27T20:13:25.723Z,-2.15
2023-02-27T20:15:56.511Z,-2.15
2023-02-27T20:18:23.315Z,-2.20
2023-02-27T20:21:00.433Z,-2.25
2023-02-27T20:23:27.208Z,-2.24
2023-02-27T20:25:53.752Z,-2.23
2023-02-27T20:28:21.086Z,-2.17
2023-02-27T20:30:47.779Z,-2.09
2023-02-27T20:33:14.611Z,-2.05
2023-02-27T20:35:41.330Z,-1.99
2023-02-27T20:38:09.268Z,-1.92
2023-02-27T20:40:35.852Z,-1.92
2023-02-27T20:43:02.474Z,-1.96
2023-02-27T20:45:29.577Z,-1.94
2023-02-27T20:47:56.211Z,-1.92
2023-02-27T20:50:22.740Z,-1.95
2023-02-27T20:52:53.810Z,-1.91
2023-02-27T20:55:21.837Z,-1.99
2023-02-27T20:57:48.378Z,-2.02
2023-02-27T21:00:15.531Z,-2.08
2023-02-27T21:02:42.109Z,-2.13
2023-02-27T21:05:09.278Z,-2.17
2023-02-27T21:07:35.882Z,-2.13
2023-02-27T21:10:02.484Z,-2.18
2023-02-27T21:12:30.692Z,-2.21
2023-02-27T21:14:57.305Z,-2.23
2023-02-27T21:17:24.104Z,-2.22
2023-02-27T21:19:50.764Z,-2.25
2023-02-27T21:22:17.533Z,-2.31
2023-02-27T21:24:44.119Z,-2.37
2023-02-27T21:27:10.643Z,-2.44
2023-02-27T21:29:38.790Z,-2.52
2023-02-27T21:32:05.463Z,-2.56
2023-02-27T21:34:32.076Z,-2.59
2023-02-27T21:37:01.086Z,-2.62
2023-02-27T21:39:27.955Z,-2.65
2023-02-27T21:41:55.113Z,-2.69
2023-02-27T21:44:23.247Z,-2.74
2023-02-27T21:46:51.629Z,-2.80
2023-02-27T21:49:21.105Z,-2.88
2023-02-27T21:51:47.725Z,-2.97
2023-02-27T21:54:15.610Z,-3.02
2023-02-27T21:56:43.474Z,-3.09
2023-02-27T21:59:10.630Z,-3.19
2023-02-27T22:01:38.197Z,-3.27
2023-02-27T22:04:06.840Z,-3.28
2023-02-27T22:06:34.266Z,-3.27
2023-02-27T22:09:03.058Z,-3.33
2023-02-27T22:11:30.080Z,-3.34
2023-02-27T22:13:57.220Z,-3.31
2023-02-27T22:16:23.988Z,-3.30
2023-02-27T22:18:50.749Z,-3.27
2023-02-27T22:21:20.751Z,-3.34
2023-02-27T22:23:47.490Z,-3.37
2023-02-27T22:26:17.096Z,-3.37
2023-02-27T22:28:43.597Z,-3.37
2023-02-27T22:31:11.990Z,-3.32
2023-02-27T22:33:39.972Z,-3.30
2023-02-27T22:36:08.285Z,-3.28
2023-02-27T22:38:36.491Z,-3.24
2023-02-27T22:41:06.449Z,-3.22
2023-02-27T22:43:33.412Z,-3.26
2023-02-27T22:46:00.087Z,-3.24
2023-02-27T22:48:26.723Z,-3.18
2023-02-27T22:51:00.384Z,-3.14
2023-02-27T22:53:26.987Z,-3.12
2023-02-27T22:55:56.426Z,-3.09
2023-02-27T22:58:23.581Z,-3.09
2023-02-27T23:00:50.165Z,-3.08
2023-02-27T23:03:16.737Z,-3.09
2023-02-27T23:05:46.702Z,-3.12
2023-02-27T23:08:13.495Z,-3.15
2023-02-27T23:10:40.810Z,-3.22
2023-02-27T23:13:08.870Z,-3.24
2023-02-27T23:15:35.688Z,-3.25
2023-02-27T23:18:02.269Z,-3.31
2023-02-27T23:20:28.827Z,-3.33
2023-02-27T23:22:55.400Z,-3.32
2023-02-27T23:25:23.066Z,-3.32
2023-02-27T23:27:49.618Z,-3.29
2023-02-27T23:30:18.078Z,-3.29
2023-02-27T23:32:44.824Z,-3.34
2023-02-27T23:35:11.995Z,-3.35
2023-02-27T23:37:39.299Z,-3.37
2023-02-27T23:40:07.579Z,-3.28
2023-02-27T23:42:34.340Z,-3.21
2023-02-27T23:45:00.877Z,-3.15
2023-02-27T23:47:28.790Z,-3.09
2023-02-27T23:49:55.367Z,-3.06
2023-02-27T23:52:21.929Z,-3.04
2023-02-27T23:54:48.649Z,-3.01
2023-02-27T23:57:15.272Z,-3.02
2023-02-27T23:59:41.778Z,-3.02
